sensor_id;sensor_type;location;lat;lon;timestamp;pressure;altitude;pressure_sealevel;temperature;humidity
69751;BME280;57335;52.288;6.056;2023-04-15T00:00:58;100907.47;;;4.50;87.25
69751;BME280;57335;52.288;6.056;2023-04-15T00:03:25;100924.34;;;4.37;87.20
69751;BME280;57335;52.288;6.056;2023-04-15T00:05:52;100915.41;;;4.24;86.36
69751;BME280;57335;52.288;6.056;2023-04-15T00:08:19;100912.00;;;4.15;85.96
69751;BME280;57335;52.288;6.056;2023-04-15T00:10:45;100937.13;;;4.23;87.10
69751;BME280;57335;52.288;6.056;2023-04-15T00:13:11;100924.31;;;4.13;86.25
69751;BME280;57335;52.288;6.056;2023-04-15T00:15:38;100918.97;;;3.98;86.73
69751;BME280;57335;52.288;6.056;2023-04-15T00:18:04;100925.78;;;3.99;87.33
69751;BME280;57335;52.288;6.056;2023-04-15T00:20:30;100924.78;;;3.92;88.00
69751;BME280;57335;52.288;6.056;2023-04-15T00:22:57;100936.78;;;3.93;87.81
69751;BME280;57335;52.288;6.056;2023-04-15T00:25:23;100915.34;;;3.74;89.06
69751;BME280;57335;52.288;6.056;2023-04-15T00:27:49;100919.56;;;3.67;90.13
69751;BME280;57335;52.288;6.056;2023-04-15T00:30:16;100928.94;;;3.60;90.74
69751;BME280;57335;52.288;6.056;2023-04-15T00:32:42;100913.38;;;3.52;89.94
69751;BME280;57335;52.288;6.056;2023-04-15T00:35:09;100917.25;;;3.48;90.89
69751;BME280;57335;52.288;6.056;2023-04-15T00:37:35;100937.97;;;3.48;91.74
69751;BME280;57335;52.288;6.056;2023-04-15T00:40:01;100934.88;;;3.44;92.81
69751;BME280;57335;52.288;6.056;2023-04-15T00:42:28;100936.66;;;3.44;93.18
69751;BME280;57335;52.288;6.056;2023-04-15T00:44:54;100925.25;;;3.28;94.78
69751;BME280;57335;52.288;6.056;2023-04-15T00:47:21;100951.53;;;3.33;95.14
69751;BME280;57335;52.288;6.056;2023-04-15T00:49:47;100926.84;;;3.13;93.32
69751;BME280;57335;52.288;6.056;2023-04-15T00:52:14;100933.63;;;3.14;91.57
69751;BME280;57335;52.288;6.056;2023-04-15T00:54:40;100916.13;;;3.08;90.85
69751;BME280;57335;52.288;6.056;2023-04-15T00:57:07;100953.44;;;3.23;90.96
69751;BME280;57335;52.288;6.056;2023-04-15T00:59:33;100933.13;;;3.10;90.75
69751;BME280;57335;52.288;6.056;2023-04-15T01:01:59;100949.84;;;3.24;91.79
69751;BME280;57335;52.288;6.056;2023-04-15T01:04:26;100933.94;;;3.11;91.37
69751;BME280;57335;52.288;6.056;2023-04-15T01:06:52;100931.84;;;3.14;89.99
69751;BME280;57335;52.288;6.056;2023-04-15T01:09:19;100939.78;;;3.13;91.04
69751;BME280;57335;52.288;6.056;2023-04-15T01:11:45;100952.13;;;3.19;91.15
69751;BME280;57335;52.288;6.056;2023-04-15T01:14:12;100941.66;;;3.03;91.82
69751;BME280;57335;52.288;6.056;2023-04-15T01:16:38;100935.47;;;2.95;91.65
69751;BME280;57335;52.288;6.056;2023-04-15T01:19:05;100955.06;;;2.98;91.94
69751;BME280;57335;52.288;6.056;2023-04-15T01:21:36;100952.22;;;2.83;95.63
69751;BME280;57335;52.288;6.056;2023-04-15T01:24:07;100939.84;;;2.69;97.77
69751;BME280;57335;52.288;6.056;2023-04-15T01:26:38;100951.47;;;2.65;100.00
69751;BME280;57335;52.288;6.056;2023-04-15T01:29:04;100953.03;;;2.57;100.00
69751;BME280;57335;52.288;6.056;2023-04-15T01:31:31;100931.09;;;2.44;100.00
69751;BME280;57335;52.288;6.056;2023-04-15T01:33:59;100950.38;;;2.49;100.00
69751;BME280;57335;52.288;6.056;2023-04-15T01:36:26;100948.53;;;2.42;100.00
69751;BME280;57335;52.288;6.056;2023-04-15T01:38:52;100957.47;;;2.47;100.00
69751;BME280;57335;52.288;6.056;2023-04-15T01:41:27;100958.06;;;2.41;100.00
69751;BME280;57335;52.288;6.056;2023-04-15T01:43:54;100937.53;;;2.22;100.00
69751;BME280;57335;52.288;6.056;2023-04-15T01:46:20;100954.09;;;2.29;100.00
69751;BME280;57335;52.288;6.056;2023-04-15T01:48:46;100943.59;;;2.12;100.00
69751;BME280;57335;52.288;6.056;2023-04-15T01:51:13;100959.47;;;2.17;100.00
69751;BME280;57335;52.288;6.056;2023-04-15T01:53:39;100933.63;;;1.99;100.00
69751;BME280;57335;52.288;6.056;2023-04-15T01:56:06;100948.03;;;2.02;100.00
69751;BME280;57335;52.288;6.056;2023-04-15T01:58:32;100968.13;;;2.08;100.00
69751;BME280;57335;52.288;6.056;2023-04-15T02:00:59;100949.72;;;1.93;100.00
69751;BME280;57335;52.288;6.056;2023-04-15T02:03:25;100949.88;;;1.92;100.00
69751;BME280;57335;52.288;6.056;2023-04-15T02:05:52;100971.28;;;2.02;100.00
69751;BME280;57335;52.288;6.056;2023-04-15T02:08:18;100962.44;;;2.05;100.00
69751;BME280;57335;52.288;6.056;2023-04-15T02:10:44;100957.63;;;1.92;100.00
69751;BME280;57335;52.288;6.056;2023-04-15T02:13:11;100971.94;;;2.04;100.00
69751;BME280;57335;52.288;6.056;2023-04-15T02:15:37;100961.31;;;1.89;100.00
69751;BME280;57335;52.288;6.056;2023-04-15T02:18:03;100970.41;;;1.93;100.00
69751;BME280;57335;52.288;6.056;2023-04-15T02:20:31;100977.53;;;1.82;100.00
69751;BME280;57335;52.288;6.056;2023-04-15T02:22:57;100964.91;;;1.61;100.00
69751;BME280;57335;52.288;6.056;2023-04-15T02:25:23;100961.91;;;1.55;100.00
69751;BME280;57335;52.288;6.056;2023-04-15T02:27:50;100979.94;;;1.65;100.00
69751;BME280;57335;52.288;6.056;2023-04-15T02:30:16;100976.31;;;1.58;100.00
69751;BME280;57335;52.288;6.056;2023-04-15T02:32:42;100992.78;;;1.57;100.00
69751;BME280;57335;52.288;6.056;2023-04-15T02:35:09;100988.84;;;1.53;100.00
69751;BME280;57335;52.288;6.056;2023-04-15T02:37:36;100979.47;;;1.52;100.00
69751;BME280;57335;52.288;6.056;2023-04-15T02:40:03;100979.19;;;1.55;100.00
69751;BME280;57335;52.288;6.056;2023-04-15T02:42:30;100993.31;;;1.61;100.00
69751;BME280;57335;52.288;6.056;2023-04-15T02:44:56;100993.44;;;1.59;100.00
69751;BME280;57335;52.288;6.056;2023-04-15T02:47:22;100999.94;;;1.63;100.00
69751;BME280;57335;52.288;6.056;2023-04-15T02:49:49;100995.34;;;1.57;100.00
69751;BME280;57335;52.288;6.056;2023-04-15T02:52:15;101001.56;;;1.64;100.00
69751;BME280;57335;52.288;6.056;2023-04-15T02:54:41;100984.34;;;1.55;100.00
69751;BME280;57335;52.288;6.056;2023-04-15T02:57:08;100987.31;;;1.60;100.00
69751;BME280;57335;52.288;6.056;2023-04-15T02:59:34;101013.75;;;1.72;100.00
69751;BME280;57335;52.288;6.056;2023-04-15T03:02:00;100985.56;;;1.61;100.00
69751;BME280;57335;52.288;6.056;2023-04-15T03:04:27;100994.47;;;1.66;100.00
69751;BME280;57335;52.288;6.056;2023-04-15T03:06:53;101013.63;;;1.73;100.00
69751;BME280;57335;52.288;6.056;2023-04-15T03:09:19;100993.81;;;1.64;100.00
69751;BME280;57335;52.288;6.056;2023-04-15T03:11:46;101008.91;;;1.69;100.00
69751;BME280;57335;52.288;6.056;2023-04-15T03:14:12;100994.38;;;1.58;100.00
69751;BME280;57335;52.288;6.056;2023-04-15T03:16:38;101012.72;;;1.65;100.00
69751;BME280;57335;52.288;6.056;2023-04-15T03:19:05;101009.03;;;1.67;100.00
69751;BME280;57335;52.288;6.056;2023-04-15T03:21:31;100998.06;;;1.55;100.00
69751;BME280;57335;52.288;6.056;2023-04-15T03:23:57;101012.72;;;1.65;100.00
69751;BME280;57335;52.288;6.056;2023-04-15T03:26:28;101015.72;;;1.60;100.00
69751;BME280;57335;52.288;6.056;2023-04-15T03:28:55;101010.31;;;1.53;100.00
69751;BME280;57335;52.288;6.056;2023-04-15T03:31:22;101029.03;;;1.65;100.00
69751;BME280;57335;52.288;6.056;2023-04-15T03:33:49;101017.91;;;1.65;100.00
69751;BME280;57335;52.288;6.056;2023-04-15T03:36:15;101029.44;;;1.88;100.00
69751;BME280;57335;52.288;6.056;2023-04-15T03:38:42;101002.59;;;1.81;100.00
69751;BME280;57335;52.288;6.056;2023-04-15T03:41:08;101028.91;;;2.12;100.00
69751;BME280;57335;52.288;6.056;2023-04-15T03:43:34;101034.47;;;2.17;100.00
69751;BME280;57335;52.288;6.056;2023-04-15T03:46:01;101036.38;;;2.15;100.00
69751;BME280;57335;52.288;6.056;2023-04-15T03:48:27;101035.22;;;2.28;100.00
69751;BME280;57335;52.288;6.056;2023-04-15T03:50:54;101030.75;;;2.20;100.00
69751;BME280;57335;52.288;6.056;2023-04-15T03:53:20;101042.47;;;2.42;100.00
69751;BME280;57335;52.288;6.056;2023-04-15T03:55:46;101042.31;;;2.44;100.00
69751;BME280;57335;52.288;6.056;2023-04-15T03:58:13;101036.94;;;2.37;100.00
69751;BME280;57335;52.288;6.056;2023-04-15T04:00:40;101030.63;;;2.39;100.00
69751;BME280;57335;52.288;6.056;2023-04-15T04:03:06;101024.50;;;2.40;100.00
69751;BME280;57335;52.288;6.056;2023-04-15T04:05:33;101051.56;;;2.46;100.00
69751;BME280;57335;52.288;6.056;2023-04-15T04:07:59;101059.31;;;2.46;100.00
69751;BME280;57335;52.288;6.056;2023-04-15T04:10:26;101056.59;;;2.48;100.00
69751;BME280;57335;52.288;6.056;2023-04-15T04:12:52;101066.66;;;2.51;100.00
69751;BME280;57335;52.288;6.056;2023-04-15T04:15:18;101068.78;;;2.55;100.00
69751;BME280;57335;52.288;6.056;2023-04-15T04:17:45;101056.78;;;2.54;100.00
69751;BME280;57335;52.288;6.056;2023-04-15T04:20:11;101063.22;;;2.68;100.00
69751;BME280;57335;52.288;6.056;2023-04-15T04:22:38;101062.13;;;2.71;100.00
69751;BME280;57335;52.288;6.056;2023-04-15T04:25:05;101047.41;;;2.71;100.00
69751;BME280;57335;52.288;6.056;2023-04-15T04:27:32;101057.38;;;2.84;100.00
69751;BME280;57335;52.288;6.056;2023-04-15T04:29:58;101080.72;;;2.92;100.00
69751;BME280;57335;52.288;6.056;2023-04-15T04:32:24;101078.53;;;2.97;100.00
69751;BME280;57335;52.288;6.056;2023-04-15T04:34:51;101083.38;;;3.00;100.00
69751;BME280;57335;52.288;6.056;2023-04-15T04:37:17;101074.75;;;2.92;100.00
69751;BME280;57335;52.288;6.056;2023-04-15T04:39:44;101078.81;;;2.94;100.00
69751;BME280;57335;52.288;6.056;2023-04-15T04:42:10;101098.50;;;3.05;100.00
69751;BME280;57335;52.288;6.056;2023-04-15T04:44:36;101090.66;;;2.97;100.00
69751;BME280;57335;52.288;6.056;2023-04-15T04:47:02;101099.16;;;3.07;100.00
69751;BME280;57335;52.288;6.056;2023-04-15T04:49:29;101102.69;;;3.06;100.00
69751;BME280;57335;52.288;6.056;2023-04-15T04:51:56;101097.66;;;3.05;100.00
69751;BME280;57335;52.288;6.056;2023-04-15T04:54:22;101116.06;;;3.19;100.00
69751;BME280;57335;52.288;6.056;2023-04-15T04:56:49;101101.28;;;3.12;100.00
69751;BME280;57335;52.288;6.056;2023-04-15T04:59:15;101114.28;;;3.20;100.00
69751;BME280;57335;52.288;6.056;2023-04-15T05:01:43;101106.19;;;3.15;100.00
69751;BME280;57335;52.288;6.056;2023-04-15T05:04:09;101112.50;;;3.20;100.00
69751;BME280;57335;52.288;6.056;2023-04-15T05:06:36;101109.09;;;3.20;100.00
69751;BME280;57335;52.288;6.056;2023-04-15T05:09:02;101126.69;;;3.34;100.00
69751;BME280;57335;52.288;6.056;2023-04-15T05:11:29;101112.34;;;3.22;100.00
69751;BME280;57335;52.288;6.056;2023-04-15T05:13:55;101113.34;;;3.21;100.00
69751;BME280;57335;52.288;6.056;2023-04-15T05:16:22;101129.69;;;3.22;100.00
69751;BME280;57335;52.288;6.056;2023-04-15T05:18:48;101114.97;;;3.04;100.00
69751;BME280;57335;52.288;6.056;2023-04-15T05:21:14;101140.78;;;3.14;100.00
69751;BME280;57335;52.288;6.056;2023-04-15T05:23:41;101145.97;;;3.14;100.00
69751;BME280;57335;52.288;6.056;2023-04-15T05:26:08;101147.44;;;3.16;100.00
69751;BME280;57335;52.288;6.056;2023-04-15T05:28:34;101131.75;;;3.18;100.00
69751;BME280;57335;52.288;6.056;2023-04-15T05:31:00;101145.09;;;3.49;100.00
69751;BME280;57335;52.288;6.056;2023-04-15T05:33:27;101128.91;;;3.73;100.00
69751;BME280;57335;52.288;6.056;2023-04-15T05:35:53;101154.63;;;4.35;100.00
69751;BME280;57335;52.288;6.056;2023-04-15T05:38:19;101134.28;;;4.73;100.00
69751;BME280;57335;52.288;6.056;2023-04-15T05:40:46;101133.16;;;5.25;100.00
69751;BME280;57335;52.288;6.056;2023-04-15T05:43:13;101135.47;;;5.84;100.00
69751;BME280;57335;52.288;6.056;2023-04-15T05:45:39;101155.44;;;6.48;98.98
69751;BME280;57335;52.288;6.056;2023-04-15T05:48:05;101147.19;;;6.90;96.98
69751;BME280;57335;52.288;6.056;2023-04-15T05:50:32;101138.91;;;7.25;93.23
69751;BME280;57335;52.288;6.056;2023-04-15T05:52:59;101163.38;;;7.76;91.09
69751;BME280;57335;52.288;6.056;2023-04-15T05:55:25;101170.31;;;8.14;89.11
69751;BME280;57335;52.288;6.056;2023-04-15T05:57:51;101160.81;;;8.43;86.22
69751;BME280;57335;52.288;6.056;2023-04-15T06:00:18;101168.03;;;8.77;87.26
69751;BME280;57335;52.288;6.056;2023-04-15T06:02:44;101181.09;;;9.20;84.38
69751;BME280;57335;52.288;6.056;2023-04-15T06:05:11;101193.38;;;9.48;82.96
69751;BME280;57335;52.288;6.056;2023-04-15T06:07:37;101193.97;;;9.78;81.86
69751;BME280;57335;52.288;6.056;2023-04-15T06:10:04;101198.44;;;10.12;79.82
69751;BME280;57335;52.288;6.056;2023-04-15T06:12:31;101192.13;;;10.48;77.74
69751;BME280;57335;52.288;6.056;2023-04-15T06:14:58;101195.09;;;10.93;76.69
69751;BME280;57335;52.288;6.056;2023-04-15T06:17:25;101196.34;;;11.11;74.39
69751;BME280;57335;52.288;6.056;2023-04-15T06:19:52;101197.13;;;11.18;74.18
69751;BME280;57335;52.288;6.056;2023-04-15T06:22:18;101217.13;;;11.19;73.51
69751;BME280;57335;52.288;6.056;2023-04-15T06:24:45;101221.72;;;11.10;74.51
69751;BME280;57335;52.288;6.056;2023-04-15T06:27:11;101223.38;;;11.05;74.90
69751;BME280;57335;52.288;6.056;2023-04-15T06:29:37;101220.72;;;10.98;74.50
69751;BME280;57335;52.288;6.056;2023-04-15T06:32:04;101241.53;;;11.13;75.39
69751;BME280;57335;52.288;6.056;2023-04-15T06:34:30;101245.75;;;11.14;75.36
69751;BME280;57335;52.288;6.056;2023-04-15T06:36:57;101239.28;;;11.03;75.36
69751;BME280;57335;52.288;6.056;2023-04-15T06:39:23;101240.88;;;10.91;75.56
69751;BME280;57335;52.288;6.056;2023-04-15T06:41:50;101238.78;;;10.66;76.63
69751;BME280;57335;52.288;6.056;2023-04-15T06:44:16;101244.16;;;10.45;77.67
69751;BME280;57335;52.288;6.056;2023-04-15T06:46:42;101251.28;;;10.29;79.67
69751;BME280;57335;52.288;6.056;2023-04-15T06:49:09;101267.78;;;10.23;81.11
69751;BME280;57335;52.288;6.056;2023-04-15T06:51:36;101267.25;;;10.06;80.61
69751;BME280;57335;52.288;6.056;2023-04-15T06:54:03;101275.06;;;9.93;82.68
69751;BME280;57335;52.288;6.056;2023-04-15T06:56:30;101271.09;;;9.75;83.93
69751;BME280;57335;52.288;6.056;2023-04-15T06:58:56;101263.16;;;9.41;83.58
69751;BME280;57335;52.288;6.056;2023-04-15T07:01:22;101267.91;;;9.30;86.55
69751;BME280;57335;52.288;6.056;2023-04-15T07:03:49;101261.78;;;9.23;87.32
69751;BME280;57335;52.288;6.056;2023-04-15T07:06:15;101276.22;;;9.19;87.72
69751;BME280;57335;52.288;6.056;2023-04-15T07:08:42;101278.56;;;9.14;89.07
69751;BME280;57335;52.288;6.056;2023-04-15T07:11:08;101277.81;;;8.98;89.74
69751;BME280;57335;52.288;6.056;2023-04-15T07:13:35;101287.47;;;8.98;90.71
69751;BME280;57335;52.288;6.056;2023-04-15T07:16:01;101278.97;;;8.96;89.93
69751;BME280;57335;52.288;6.056;2023-04-15T07:18:27;101273.69;;;8.89;88.91
69751;BME280;57335;52.288;6.056;2023-04-15T07:20:54;101274.75;;;8.95;90.61
69751;BME280;57335;52.288;6.056;2023-04-15T07:23:20;101285.16;;;9.10;90.01
69751;BME280;57335;52.288;6.056;2023-04-15T07:25:47;101305.00;;;9.41;89.45
69751;BME280;57335;52.288;6.056;2023-04-15T07:28:13;101296.91;;;9.35;87.01
69751;BME280;57335;52.288;6.056;2023-04-15T07:30:39;101301.00;;;9.23;86.89
69751;BME280;57335;52.288;6.056;2023-04-15T07:33:06;101298.16;;;9.39;89.68
69751;BME280;57335;52.288;6.056;2023-04-15T07:35:32;101309.00;;;9.36;87.88
69751;BME280;57335;52.288;6.056;2023-04-15T07:37:59;101315.72;;;9.46;87.46
69751;BME280;57335;52.288;6.056;2023-04-15T07:40:25;101304.63;;;9.44;86.10
69751;BME280;57335;52.288;6.056;2023-04-15T07:42:52;101319.53;;;9.43;88.01
69751;BME280;57335;52.288;6.056;2023-04-15T07:45:18;101306.75;;;9.33;88.11
69751;BME280;57335;52.288;6.056;2023-04-15T07:47:45;101305.97;;;9.18;87.37
69751;BME280;57335;52.288;6.056;2023-04-15T07:50:11;101312.66;;;9.21;88.26
69751;BME280;57335;52.288;6.056;2023-04-15T07:52:37;101311.94;;;9.12;89.82
69751;BME280;57335;52.288;6.056;2023-04-15T07:55:05;101312.28;;;9.24;90.91
69751;BME280;57335;52.288;6.056;2023-04-15T07:57:32;101311.38;;;9.53;93.82
69751;BME280;57335;52.288;6.056;2023-04-15T07:59:59;101315.91;;;9.66;90.09
69751;BME280;57335;52.288;6.056;2023-04-15T08:02:26;101309.25;;;9.63;88.05
69751;BME280;57335;52.288;6.056;2023-04-15T08:04:52;101313.41;;;9.57;86.74
69751;BME280;57335;52.288;6.056;2023-04-15T08:07:19;101330.19;;;9.63;88.01
69751;BME280;57335;52.288;6.056;2023-04-15T08:09:45;101317.16;;;9.48;88.39
69751;BME280;57335;52.288;6.056;2023-04-15T08:12:11;101344.06;;;9.64;88.00
69751;BME280;57335;52.288;6.056;2023-04-15T08:14:38;101341.00;;;9.60;87.71
69751;BME280;57335;52.288;6.056;2023-04-15T08:17:05;101328.53;;;9.84;89.51
69751;BME280;57335;52.288;6.056;2023-04-15T08:19:31;101347.75;;;9.91;86.69
69751;BME280;57335;52.288;6.056;2023-04-15T08:21:57;101345.16;;;9.97;85.24
69751;BME280;57335;52.288;6.056;2023-04-15T08:24:24;101332.31;;;10.03;85.81
69751;BME280;57335;52.288;6.056;2023-04-15T08:26:51;101344.97;;;9.99;86.47
69751;BME280;57335;52.288;6.056;2023-04-15T08:29:17;101340.53;;;9.99;89.34
69751;BME280;57335;52.288;6.056;2023-04-15T08:31:44;101341.69;;;9.90;87.83
69751;BME280;57335;52.288;6.056;2023-04-15T08:34:10;101350.50;;;9.83;86.38
69751;BME280;57335;52.288;6.056;2023-04-15T08:36:37;101346.50;;;9.87;86.83
69751;BME280;57335;52.288;6.056;2023-04-15T08:39:03;101354.06;;;10.03;88.99
69751;BME280;57335;52.288;6.056;2023-04-15T08:41:38;101340.81;;;10.05;87.73
69751;BME280;57335;52.288;6.056;2023-04-15T08:44:05;101349.09;;;10.08;88.58
69751;BME280;57335;52.288;6.056;2023-04-15T08:46:32;101357.06;;;10.00;88.05
69751;BME280;57335;52.288;6.056;2023-04-15T08:48:59;101363.88;;;9.94;87.28
69751;BME280;57335;52.288;6.056;2023-04-15T08:51:27;101362.66;;;9.90;87.96
69751;BME280;57335;52.288;6.056;2023-04-15T08:53:54;101362.81;;;9.67;86.82
69751;BME280;57335;52.288;6.056;2023-04-15T08:56:24;101359.63;;;9.93;90.33
69751;BME280;57335;52.288;6.056;2023-04-15T08:58:51;101361.63;;;9.91;87.29
69751;BME280;57335;52.288;6.056;2023-04-15T09:01:18;101369.53;;;9.98;88.50
69751;BME280;57335;52.288;6.056;2023-04-15T09:03:48;101366.28;;;10.17;92.62
69751;BME280;57335;52.288;6.056;2023-04-15T09:06:16;101382.59;;;10.41;88.83
69751;BME280;57335;52.288;6.056;2023-04-15T09:08:44;101375.31;;;10.36;84.98
69751;BME280;57335;52.288;6.056;2023-04-15T09:11:11;101377.03;;;10.29;85.51
69751;BME280;57335;52.288;6.056;2023-04-15T09:13:37;101387.69;;;10.49;87.07
69751;BME280;57335;52.288;6.056;2023-04-15T09:16:05;101397.91;;;10.44;87.46
69751;BME280;57335;52.288;6.056;2023-04-15T09:18:33;101378.84;;;10.29;84.76
69751;BME280;57335;52.288;6.056;2023-04-15T09:21:10;101405.78;;;10.44;86.56
69751;BME280;57335;52.288;6.056;2023-04-15T09:23:39;101388.78;;;10.33;84.16
69751;BME280;57335;52.288;6.056;2023-04-15T09:26:06;101401.09;;;10.33;83.59
69751;BME280;57335;52.288;6.056;2023-04-15T09:28:40;101406.78;;;10.43;85.24
69751;BME280;57335;52.288;6.056;2023-04-15T09:31:07;101409.31;;;10.58;85.23
69751;BME280;57335;52.288;6.056;2023-04-15T09:33:33;101403.53;;;10.69;85.83
69751;BME280;57335;52.288;6.056;2023-04-15T09:36:04;101414.16;;;10.96;85.36
69751;BME280;57335;52.288;6.056;2023-04-15T09:38:31;101417.94;;;11.28;86.21
69751;BME280;57335;52.288;6.056;2023-04-15T09:40:58;101415.97;;;11.44;83.44
69751;BME280;57335;52.288;6.056;2023-04-15T09:43:40;101421.31;;;11.77;82.88
69751;BME280;57335;52.288;6.056;2023-04-15T09:46:06;101424.03;;;12.17;83.27
69751;BME280;57335;52.288;6.056;2023-04-15T09:48:33;101432.09;;;12.42;80.69
69751;BME280;57335;52.288;6.056;2023-04-15T09:51:00;101429.06;;;12.25;80.85
69751;BME280;57335;52.288;6.056;2023-04-15T09:53:27;101432.69;;;11.91;79.38
69751;BME280;57335;52.288;6.056;2023-04-15T09:55:58;101441.69;;;11.68;80.52
69751;BME280;57335;52.288;6.056;2023-04-15T09:58:27;101440.22;;;11.46;82.34
69751;BME280;57335;52.288;6.056;2023-04-15T10:00:54;101444.09;;;11.08;80.22
69751;BME280;57335;52.288;6.056;2023-04-15T10:05:50;101443.91;;;10.75;84.22
69751;BME280;57335;52.288;6.056;2023-04-15T10:08:31;101436.38;;;10.65;83.34
69751;BME280;57335;52.288;6.056;2023-04-15T10:11:00;101438.75;;;10.60;85.01
69751;BME280;57335;52.288;6.056;2023-04-15T10:13:30;101437.34;;;10.57;82.21
69751;BME280;57335;52.288;6.056;2023-04-15T10:15:58;101432.75;;;10.94;85.28
69751;BME280;57335;52.288;6.056;2023-04-15T10:18:26;101448.63;;;11.34;84.56
69751;BME280;57335;52.288;6.056;2023-04-15T10:20:54;101445.09;;;11.62;79.96
69751;BME280;57335;52.288;6.056;2023-04-15T10:23:22;101446.13;;;11.61;78.95
69751;BME280;57335;52.288;6.056;2023-04-15T10:25:51;101439.91;;;11.75;76.75
69751;BME280;57335;52.288;6.056;2023-04-15T10:28:19;101449.59;;;11.88;78.81
69751;BME280;57335;52.288;6.056;2023-04-15T10:30:47;101446.22;;;11.94;79.94
69751;BME280;57335;52.288;6.056;2023-04-15T10:33:14;101454.63;;;11.76;76.51
69751;BME280;57335;52.288;6.056;2023-04-15T10:35:42;101440.47;;;11.64;74.56
69751;BME280;57335;52.288;6.056;2023-04-15T10:38:37;101456.81;;;11.66;78.75
69751;BME280;57335;52.288;6.056;2023-04-15T10:41:18;101447.91;;;11.47;81.86
69751;BME280;57335;52.288;6.056;2023-04-15T10:43:48;101464.00;;;11.37;78.57
69751;BME280;57335;52.288;6.056;2023-04-15T10:46:36;101464.78;;;11.31;80.10
69751;BME280;57335;52.288;6.056;2023-04-15T10:49:10;101471.78;;;11.17;78.56
69751;BME280;57335;52.288;6.056;2023-04-15T10:51:40;101475.78;;;11.07;81.02
69751;BME280;57335;52.288;6.056;2023-04-15T10:54:15;101473.97;;;11.14;82.31
69751;BME280;57335;52.288;6.056;2023-04-15T10:56:47;101478.41;;;11.07;79.20
69751;BME280;57335;52.288;6.056;2023-04-15T10:59:16;101478.97;;;11.50;86.55
69751;BME280;57335;52.288;6.056;2023-04-15T11:02:01;101479.84;;;11.57;79.95
69751;BME280;57335;52.288;6.056;2023-04-15T11:04:54;101475.78;;;11.55;80.11
69751;BME280;57335;52.288;6.056;2023-04-15T11:07:38;101485.84;;;11.45;78.40
69751;BME280;57335;52.288;6.056;2023-04-15T11:12:59;101469.50;;;11.08;79.01
69751;BME280;57335;52.288;6.056;2023-04-15T11:15:36;101491.56;;;10.85;79.57
69751;BME280;57335;52.288;6.056;2023-04-15T11:20:37;101473.53;;;10.47;80.81
69751;BME280;57335;52.288;6.056;2023-04-15T11:23:04;101487.56;;;10.61;81.53
69751;BME280;57335;52.288;6.056;2023-04-15T11:25:41;101478.03;;;10.53;80.94
69751;BME280;57335;52.288;6.056;2023-04-15T11:28:08;101497.47;;;10.66;80.44
69751;BME280;57335;52.288;6.056;2023-04-15T11:30:35;101487.31;;;10.56;80.31
69751;BME280;57335;52.288;6.056;2023-04-15T11:33:04;101493.31;;;10.50;79.41
69751;BME280;57335;52.288;6.056;2023-04-15T11:35:31;101493.44;;;10.63;78.95
69751;BME280;57335;52.288;6.056;2023-04-15T11:38:01;101495.72;;;10.73;80.30
69751;BME280;57335;52.288;6.056;2023-04-15T11:40:29;101510.88;;;10.77;80.36
69751;BME280;57335;52.288;6.056;2023-04-15T11:43:17;101503.19;;;10.76;78.94
69751;BME280;57335;52.288;6.056;2023-04-15T11:45:54;101512.66;;;10.98;81.74
69751;BME280;57335;52.288;6.056;2023-04-15T11:48:25;101507.56;;;11.32;80.81
69751;BME280;57335;52.288;6.056;2023-04-15T11:50:54;101504.16;;;11.31;77.23
69751;BME280;57335;52.288;6.056;2023-04-15T11:53:21;101508.44;;;11.39;79.05
69751;BME280;57335;52.288;6.056;2023-04-15T11:55:50;101500.47;;;11.19;77.04
69751;BME280;57335;52.288;6.056;2023-04-15T11:58:19;101511.94;;;11.18;78.92
69751;BME280;57335;52.288;6.056;2023-04-15T12:00:53;101513.69;;;11.39;79.56
69751;BME280;57335;52.288;6.056;2023-04-15T12:03:30;101509.25;;;11.46;78.01
69751;BME280;57335;52.288;6.056;2023-04-15T12:14:07;101526.91;;;12.27;73.67
69751;BME280;57335;52.288;6.056;2023-04-15T12:16:39;101509.97;;;12.43;77.76
69751;BME280;57335;52.288;6.056;2023-04-15T12:19:43;101525.69;;;12.23;75.41
69751;BME280;57335;52.288;6.056;2023-04-15T12:22:14;101517.97;;;11.95;76.92
69751;BME280;57335;52.288;6.056;2023-04-15T12:24:43;101523.78;;;11.90;75.44
69751;BME280;57335;52.288;6.056;2023-04-15T12:27:11;101532.84;;;11.81;74.84
69751;BME280;57335;52.288;6.056;2023-04-15T12:29:39;101529.72;;;11.64;73.93
69751;BME280;57335;52.288;6.056;2023-04-15T12:32:13;101546.41;;;11.43;76.52
69751;BME280;57335;52.288;6.056;2023-04-15T12:34:41;101544.75;;;11.35;77.83
69751;BME280;57335;52.288;6.056;2023-04-15T12:37:09;101550.13;;;11.21;76.78
69751;BME280;57335;52.288;6.056;2023-04-15T12:39:38;101544.59;;;11.09;77.85
69751;BME280;57335;52.288;6.056;2023-04-15T12:42:06;101551.34;;;11.25;75.31
69751;BME280;57335;52.288;6.056;2023-04-15T12:44:32;101550.94;;;11.21;74.62
69751;BME280;57335;52.288;6.056;2023-04-15T12:46:59;101550.59;;;11.31;76.88
69751;BME280;57335;52.288;6.056;2023-04-15T12:49:26;101556.72;;;11.45;76.97
69751;BME280;57335;52.288;6.056;2023-04-15T12:51:55;101558.34;;;11.52;76.94
69751;BME280;57335;52.288;6.056;2023-04-15T12:54:21;101571.56;;;11.66;76.67
69751;BME280;57335;52.288;6.056;2023-04-15T12:56:49;101567.22;;;11.45;74.79
69751;BME280;57335;52.288;6.056;2023-04-15T12:59:16;101564.47;;;11.25;77.56
69751;BME280;57335;52.288;6.056;2023-04-15T13:01:43;101592.44;;;11.11;77.69
69751;BME280;57335;52.288;6.056;2023-04-15T13:04:10;101576.34;;;10.92;78.25
69751;BME280;57335;52.288;6.056;2023-04-15T13:06:36;101588.91;;;10.75;79.53
69751;BME280;57335;52.288;6.056;2023-04-15T13:09:03;101581.81;;;10.69;80.71
69751;BME280;57335;52.288;6.056;2023-04-15T13:11:32;101596.72;;;10.69;79.94